Onweer radar Meer informatie blitzortung!


Regen radar Meer informatie rain snow radar


Bezoek ook deze websites:

Template documentation
and downloads

And another site


Het weer levert geen direct gevaar op.    Er zijn geen waarschuwingen afgegeven.

METAR rapporten vliegvelden


Warning: A non-numeric value encountered in /var/www/vhosts/meteotuikwerd.nl/httpdocs/weather28/metar/metarDisplay.php on line 166
   
EHVK - Volkel Rnlafb, Netherlands
Afstand tot: ZW 18 km
Gewijzigd: Feb 27 2020 5:25 am
Bewolking  
Bewolking  
   Wind: ZZW 11.1 km/h
Wind: ZZW 11.1 km/h
Temperatuur: 2°C
Voelt als: -1°C
Dauwpunt: 1°C
Vochtigheid: 93%
Barometer: 1004 hPa
Bewolking: Bewolking
Zicht: meer dan 10 km
Bewolking: Licht bewolkt 2286 m,
Bewolking 2560.3 m
EHVK 270425Z AUTO 20006KT 170V240 9999 FEW075 OVC084 02/01 Q1004 BLU
EDLV - Niederrhein, Germany
Afstand tot: ZO 25 km
Gewijzigd: Feb 27 2020 5:20 am
Helder  
Helder  
   Wind: ZZW 13 km/h
Wind: ZZW 13 km/h
Temperatuur: 2°C
Voelt als: -2°C
Dauwpunt: 1°C
Vochtigheid: 93%
Barometer: 1004 hPa
Zicht: meer dan 10 km
Bewolking: Helder
EDLV 270420Z 21007KT CAVOK 02/01 Q1004
EHDL - Deelen Rnlafb, Netherlands
Afstand tot: N 35 km
Gewijzigd: Feb 27 2020 5:25 am
Nevel, Bewolking  
Nevel, Bewolking  
   Wind: Zuiden 13 km/h
Wind: Zuiden 13 km/h
Temperatuur: 1°C
Voelt als: -3°C
Dauwpunt: 1°C
Vochtigheid: 100%
Barometer: 1003 hPa
Bewolking: Bewolking
Zicht: 6 km
Bewolking: Bewolking 3962.4 m
EHDL 270425Z AUTO 19007KT 140V220 6000 BR OVC130 01/01 Q1003 WHT
EHEH - Eindhoven Rnlafb, Netherlands
Afstand tot: ZW 48 km
Gewijzigd: Feb 27 2020 5:25 am
Bewolking  
Bewolking  
   Wind: Zuiden 13 km/h
Wind: Zuiden 13 km/h
Temperatuur: 2°C
Voelt als: -2°C
Dauwpunt: 1°C
Vochtigheid: 93%
Barometer: 1004 hPa
Bewolking: Bewolking
Zicht: meer dan 10 km
Bewolking: Bewolking 3657.6 m
EHEH 270425Z AUTO 18007KT 9999 OVC120 02/01 Q1004 BLU
EHGR - Gilze-Rijen Rnla, Netherlands
Afstand tot: WZW 70 km
Gewijzigd: Feb 27 2020 5:25 am
Bewolking  
Bewolking  
   Wind: Zuiden 5.6 km/h
Wind: Zuiden 5.6 km/h
Temperatuur: 1°C
Voelt als: -1°C
Dauwpunt: 1°C
Vochtigheid: 100%
Barometer: 1003 hPa
Bewolking: Bewolking
Zicht: meer dan 10 km
Bewolking: Bewolking 3352.8 m
EHGR 270425Z AUTO 18003KT 140V220 9999 OVC110 01/01 Q1003 BLU
EBBL - Kleine-Brogel(Ba, Belgium
Afstand tot: ZZW 71 km
Gewijzigd: Feb 27 2020 5:25 am
Bewolking  
Bewolking  
   Wind: Zuiden 7.4 km/h
Wind: Zuiden 7.4 km/h
Temperatuur: 2°C
Voelt als: 0°C
Dauwpunt: 0°C
Vochtigheid: 87%
Barometer: 1004 hPa
Bewolking: Bewolking
Zicht: meer dan 10 km
Bewolking: Bewolking 4572 m
EBBL 270425Z AUTO 19004KT 9999 OVC150/// 02/00 Q1004 BLU

Script ontwikkeld door  Saratoga-weather.org Aangepast voor de template door  Weerstation Leuven

U vindt ons ook hier:

UK Metoffice

Weather Underground